PAFAPASX

Guest
Details From PAFA - FAIRBANKS INTL
To PASX - SOLDOTNA
Flight Number -
Tags generated
Created
Modified
Stats Distance 279 nm / 516 km
Max Altitude 18,000 ft / 5,486 m
Waypoints 4
Social Downloads 2
Likes 0
Share VATSIM

Download

Looking for another format? Having issues loading an existing format? Contact us
Advertisement - Login to hide

Notes

Basic altitude profile: - Ascent Rate: 2500ft/min - Ascent Speed: 250kts - Cruise Altitude: 35000ft - Cruise Speed: 420kts - Descent Rate: 1500ft/min - Descent Speed: 250kts

Route

PAFA FAI J115 ANC PASX

ID Type Via Altitude Latitude Longitude Leg Dist Tot Dist Heading (true) Name
O PAFA APT - 0 ft / 0 m 64.81391˚ -147.85539˚ - 0 nm - FAIRBANKS INTL
FAI VOR - 1,400 ft / 427 m 64.80008˚ -148.01197˚ 4 nm 4 nm 258° / 258° FAIRBANKS VORTAC
ANC VOR J115 (AWY-HI) 18,000 ft / 5,486 m 61.15081˚ -150.20656˚ 227 nm 231 nm 196° / 194° -
O PASX APT - 0 ft / 0 m 60.47496˚ -151.03824˚ 47 nm 278 nm 211° / 211° SOLDOTNA

Altitude Profile

Advertisement - Login to hide

Weather


0- 5 10 15 20 25 30 35+ Temperature / ° C

Clouds and Precipitation
Forecast for 2017-12-11 18:00 UTC. Updated 3 minutes ago

Ground ~20,000 ft ~40,000 ft Winds

PAFA

Details ICAO PAFA (FAI)
Name FAIRBANKS INTL
Region USA (Alaska)
Timezone America/Anchorage (UTC-9.0)
Stats Elevation 434 ft / 132 m (AMSL)
Location 64.813909° -147.855392°
Runways 3
Magnetic Variation 17.513° E

METAR

PAFA 111453Z 03006KT 10SM BKN110 BKN200 M01/M05 A2911

Decode

TAF

TAF PAFA 111139Z 1112/1218 06010KT P6SM BKN120 FM120300 03003KT P6SM VCSH BKN050

Decode

Departure Runways

ID Width Length Bearing (true) Bearing (mag) Surface Threshold Offset Overrun Length
01 75 ft / 23 m 2,892 ft / 881 m 38.04° 20.53° Gravel 0 ft / 0 m 0 ft / 0 m
01L 150 ft / 46 m 11,767 ft / 3,587 m 38.00° 20.49° Asphalt 750 ft / 229 m 0 ft / 0 m
01R 100 ft / 30 m 6,482 ft / 1,976 m 38.01° 20.50° Asphalt 0 ft / 0 m 0 ft / 0 m
19 75 ft / 23 m 2,892 ft / 881 m 218.05° 200.54° Gravel 0 ft / 0 m 0 ft / 0 m
19L 100 ft / 30 m 6,482 ft / 1,976 m 218.04° 200.53° Asphalt 0 ft / 0 m 0 ft / 0 m
19R 150 ft / 46 m 11,767 ft / 3,587 m 218.04° 200.53° Asphalt 750 ft / 229 m 0 ft / 0 m

PASX

Details ICAO PASX
Name SOLDOTNA
Region USA (Alaska)
Timezone America/Anchorage (UTC-9.0)
Stats Elevation 113 ft / 34 m (AMSL)
Location 60.474958° -151.038239°
Runways 1
Magnetic Variation 15.764° E

METAR

PASX 111456Z AUTO 00000KT 10SM SCT100 02/01 A2904 RMK AO2 SLP844 T00170011 53042 FZRANO

Decode

TAF

Not found

Destination Runways

ID Width Length Bearing (true) Bearing (mag) Surface Threshold Offset Overrun Length
07 132 ft / 40 m 4,983 ft / 1,519 m 90.01° 74.25° Asphalt 0 ft / 0 m 0 ft / 0 m
25 132 ft / 40 m 4,983 ft / 1,519 m 270.03° 254.27° Asphalt 0 ft / 0 m 0 ft / 0 m